sensor_id;sensor_type;location;lat;lon;timestamp;P1;durP1;ratioP1;P2;durP2;ratioP2
3589;SDS011;1809;48.470;9.226;2022-09-12T00:01:22;10.83;;;9.70;;
3589;SDS011;1809;48.470;9.226;2022-09-12T00:03:53;13.60;;;9.37;;
3589;SDS011;1809;48.470;9.226;2022-09-12T00:06:22;10.13;;;8.60;;
3589;SDS011;1809;48.470;9.226;2022-09-12T00:08:50;11.00;;;9.30;;
3589;SDS011;1809;48.470;9.226;2022-09-12T00:11:18;10.60;;;8.90;;
3589;SDS011;1809;48.470;9.226;2022-09-12T00:13:44;9.70;;;8.33;;
3589;SDS011;1809;48.470;9.226;2022-09-12T00:16:17;9.87;;;8.50;;
3589;SDS011;1809;48.470;9.226;2022-09-12T00:18:44;14.50;;;8.90;;
3589;SDS011;1809;48.470;9.226;2022-09-12T00:21:10;12.27;;;9.33;;
3589;SDS011;1809;48.470;9.226;2022-09-12T00:23:36;12.30;;;9.10;;
3589;SDS011;1809;48.470;9.226;2022-09-12T00:26:03;11.17;;;8.90;;
3589;SDS011;1809;48.470;9.226;2022-09-12T00:28:30;9.50;;;8.47;;
3589;SDS011;1809;48.470;9.226;2022-09-12T00:30:57;13.73;;;10.43;;
3589;SDS011;1809;48.470;9.226;2022-09-12T00:33:23;12.93;;;10.10;;
3589;SDS011;1809;48.470;9.226;2022-09-12T00:35:49;9.90;;;8.90;;
3589;SDS011;1809;48.470;9.226;2022-09-12T00:38:17;15.90;;;10.10;;
3589;SDS011;1809;48.470;9.226;2022-09-12T00:40:44;13.27;;;9.97;;
3589;SDS011;1809;48.470;9.226;2022-09-12T00:45:55;13.60;;;9.67;;
3589;SDS011;1809;48.470;9.226;2022-09-12T00:48:23;11.20;;;10.00;;
3589;SDS011;1809;48.470;9.226;2022-09-12T00:50:56;9.27;;;8.20;;
3589;SDS011;1809;48.470;9.226;2022-09-12T00:53:22;14.93;;;10.50;;
3589;SDS011;1809;48.470;9.226;2022-09-12T00:55:48;11.67;;;8.13;;
3589;SDS011;1809;48.470;9.226;2022-09-12T00:58:23;11.40;;;8.90;;
3589;SDS011;1809;48.470;9.226;2022-09-12T01:00:53;12.03;;;9.27;;
3589;SDS011;1809;48.470;9.226;2022-09-12T01:03:21;12.33;;;9.40;;
3589;SDS011;1809;48.470;9.226;2022-09-12T01:08:26;15.27;;;9.43;;
3589;SDS011;1809;48.470;9.226;2022-09-12T01:10:52;10.57;;;9.43;;
3589;SDS011;1809;48.470;9.226;2022-09-12T01:13:19;12.67;;;8.97;;
3589;SDS011;1809;48.470;9.226;2022-09-12T01:15:44;9.90;;;8.10;;
3589;SDS011;1809;48.470;9.226;2022-09-12T01:32:14;10.30;;;8.77;;
3589;SDS011;1809;48.470;9.226;2022-09-12T01:40:21;13.60;;;9.70;;
3589;SDS011;1809;48.470;9.226;2022-09-12T01:42:59;12.27;;;9.40;;
3589;SDS011;1809;48.470;9.226;2022-09-12T01:45:35;11.50;;;9.40;;
3589;SDS011;1809;48.470;9.226;2022-09-12T01:48:10;13.37;;;9.50;;
3589;SDS011;1809;48.470;9.226;2022-09-12T01:50:51;13.13;;;8.70;;
3589;SDS011;1809;48.470;9.226;2022-09-12T01:53:35;15.50;;;10.57;;
3589;SDS011;1809;48.470;9.226;2022-09-12T01:58:51;10.10;;;8.57;;
3589;SDS011;1809;48.470;9.226;2022-09-12T02:01:27;11.50;;;9.80;;
3589;SDS011;1809;48.470;9.226;2022-09-12T02:04:02;12.47;;;9.63;;
3589;SDS011;1809;48.470;9.226;2022-09-12T02:06:36;10.80;;;9.10;;
3589;SDS011;1809;48.470;9.226;2022-09-12T02:09:18;11.53;;;8.03;;
3589;SDS011;1809;48.470;9.226;2022-09-12T02:11:47;12.10;;;9.20;;
3589;SDS011;1809;48.470;9.226;2022-09-12T02:14:20;15.03;;;9.30;;
3589;SDS011;1809;48.470;9.226;2022-09-12T02:16:57;14.10;;;8.40;;
3589;SDS011;1809;48.470;9.226;2022-09-12T02:19:29;13.20;;;9.57;;
3589;SDS011;1809;48.470;9.226;2022-09-12T02:22:01;10.73;;;8.93;;
3589;SDS011;1809;48.470;9.226;2022-09-12T02:24:30;10.37;;;8.70;;
3589;SDS011;1809;48.470;9.226;2022-09-12T02:27:02;11.77;;;9.00;;
3589;SDS011;1809;48.470;9.226;2022-09-12T02:29:34;16.37;;;9.37;;
3589;SDS011;1809;48.470;9.226;2022-09-12T02:35:13;11.90;;;9.73;;
3589;SDS011;1809;48.470;9.226;2022-09-12T02:37:57;11.83;;;8.90;;
3589;SDS011;1809;48.470;9.226;2022-09-12T02:40:28;15.53;;;9.97;;
3589;SDS011;1809;48.470;9.226;2022-09-12T02:42:54;18.60;;;9.97;;
3589;SDS011;1809;48.470;9.226;2022-09-12T02:45:20;11.20;;;9.90;;
3589;SDS011;1809;48.470;9.226;2022-09-12T02:50:37;11.70;;;9.53;;
3589;SDS011;1809;48.470;9.226;2022-09-12T02:53:03;13.50;;;9.30;;
3589;SDS011;1809;48.470;9.226;2022-09-12T02:55:31;11.00;;;8.50;;
3589;SDS011;1809;48.470;9.226;2022-09-12T02:57:58;10.90;;;8.10;;
3589;SDS011;1809;48.470;9.226;2022-09-12T03:00:26;11.20;;;8.10;;
3589;SDS011;1809;48.470;9.226;2022-09-12T03:03:13;11.00;;;8.93;;
3589;SDS011;1809;48.470;9.226;2022-09-12T03:05:56;14.73;;;9.60;;
3589;SDS011;1809;48.470;9.226;2022-09-12T03:08:29;11.30;;;9.50;;
3589;SDS011;1809;48.470;9.226;2022-09-12T03:22:12;14.23;;;10.97;;
3589;SDS011;1809;48.470;9.226;2022-09-12T03:24:50;13.90;;;10.70;;
3589;SDS011;1809;48.470;9.226;2022-09-12T03:27:33;12.77;;;9.73;;
3589;SDS011;1809;48.470;9.226;2022-09-12T03:30:04;12.03;;;9.73;;
3589;SDS011;1809;48.470;9.226;2022-09-12T03:32:39;12.17;;;9.43;;
3589;SDS011;1809;48.470;9.226;2022-09-12T03:35:06;14.37;;;10.10;;
3589;SDS011;1809;48.470;9.226;2022-09-12T03:37:32;14.20;;;9.60;;
3589;SDS011;1809;48.470;9.226;2022-09-12T03:39:57;13.00;;;9.90;;
3589;SDS011;1809;48.470;9.226;2022-09-12T03:42:22;14.10;;;10.73;;
3589;SDS011;1809;48.470;9.226;2022-09-12T03:44:48;21.77;;;12.50;;
3589;SDS011;1809;48.470;9.226;2022-09-12T03:47:13;15.17;;;11.13;;
3589;SDS011;1809;48.470;9.226;2022-09-12T03:49:38;14.70;;;11.20;;
3589;SDS011;1809;48.470;9.226;2022-09-12T03:52:04;18.10;;;11.53;;
3589;SDS011;1809;48.470;9.226;2022-09-12T03:54:29;13.00;;;10.60;;
3589;SDS011;1809;48.470;9.226;2022-09-12T03:56:54;14.93;;;10.87;;
3589;SDS011;1809;48.470;9.226;2022-09-12T03:59:20;15.57;;;11.13;;
3589;SDS011;1809;48.470;9.226;2022-09-12T04:01:45;19.60;;;12.07;;
3589;SDS011;1809;48.470;9.226;2022-09-12T04:04:10;18.93;;;12.73;;
3589;SDS011;1809;48.470;9.226;2022-09-12T04:06:36;20.10;;;12.73;;
3589;SDS011;1809;48.470;9.226;2022-09-12T04:09:01;19.03;;;11.90;;
3589;SDS011;1809;48.470;9.226;2022-09-12T04:11:26;24.90;;;13.93;;
3589;SDS011;1809;48.470;9.226;2022-09-12T04:13:52;22.63;;;14.93;;
3589;SDS011;1809;48.470;9.226;2022-09-12T04:16:17;19.57;;;13.97;;
3589;SDS011;1809;48.470;9.226;2022-09-12T04:18:43;23.20;;;14.43;;
3589;SDS011;1809;48.470;9.226;2022-09-12T04:21:13;20.53;;;13.13;;
3589;SDS011;1809;48.470;9.226;2022-09-12T04:23:41;20.27;;;13.90;;
3589;SDS011;1809;48.470;9.226;2022-09-12T04:26:06;28.07;;;13.30;;
3589;SDS011;1809;48.470;9.226;2022-09-12T04:28:32;17.20;;;12.40;;
3589;SDS011;1809;48.470;9.226;2022-09-12T04:31:03;20.27;;;13.47;;
3589;SDS011;1809;48.470;9.226;2022-09-12T04:33:34;22.30;;;14.63;;
3589;SDS011;1809;48.470;9.226;2022-09-12T04:36:13;21.63;;;13.97;;
3589;SDS011;1809;48.470;9.226;2022-09-12T04:38:41;21.97;;;13.67;;
3589;SDS011;1809;48.470;9.226;2022-09-12T04:43:36;19.97;;;13.73;;
3589;SDS011;1809;48.470;9.226;2022-09-12T04:46:06;22.60;;;14.33;;
3589;SDS011;1809;48.470;9.226;2022-09-12T04:48:31;28.27;;;15.80;;
3589;SDS011;1809;48.470;9.226;2022-09-12T04:51:05;23.03;;;14.67;;
3589;SDS011;1809;48.470;9.226;2022-09-12T04:53:31;20.70;;;13.77;;
3589;SDS011;1809;48.470;9.226;2022-09-12T04:56:00;18.70;;;12.13;;
3589;SDS011;1809;48.470;9.226;2022-09-12T04:58:26;20.10;;;13.50;;
3589;SDS011;1809;48.470;9.226;2022-09-12T05:00:52;17.10;;;11.40;;
3589;SDS011;1809;48.470;9.226;2022-09-12T05:03:17;21.20;;;13.13;;
3589;SDS011;1809;48.470;9.226;2022-09-12T05:05:42;16.47;;;10.80;;
3589;SDS011;1809;48.470;9.226;2022-09-12T05:08:07;13.33;;;10.07;;
3589;SDS011;1809;48.470;9.226;2022-09-12T05:10:33;12.83;;;9.70;;
3589;SDS011;1809;48.470;9.226;2022-09-12T05:12:58;16.90;;;10.23;;
3589;SDS011;1809;48.470;9.226;2022-09-12T05:15:23;13.87;;;9.77;;
3589;SDS011;1809;48.470;9.226;2022-09-12T05:17:49;13.20;;;8.80;;
3589;SDS011;1809;48.470;9.226;2022-09-12T05:20:14;13.23;;;9.63;;
3589;SDS011;1809;48.470;9.226;2022-09-12T05:22:41;12.10;;;10.00;;
3589;SDS011;1809;48.470;9.226;2022-09-12T05:25:06;12.37;;;8.53;;
3589;SDS011;1809;48.470;9.226;2022-09-12T05:27:32;12.10;;;8.57;;
3589;SDS011;1809;48.470;9.226;2022-09-12T05:29:58;9.57;;;7.80;;
3589;SDS011;1809;48.470;9.226;2022-09-12T05:32:23;10.30;;;8.33;;
3589;SDS011;1809;48.470;9.226;2022-09-12T05:34:48;15.63;;;9.30;;
3589;SDS011;1809;48.470;9.226;2022-09-12T05:37:16;12.10;;;9.03;;
3589;SDS011;1809;48.470;9.226;2022-09-12T05:39:41;12.80;;;9.00;;
3589;SDS011;1809;48.470;9.226;2022-09-12T05:42:06;7.37;;;6.67;;
3589;SDS011;1809;48.470;9.226;2022-09-12T05:44:33;9.00;;;6.80;;
3589;SDS011;1809;48.470;9.226;2022-09-12T05:46:58;6.60;;;5.17;;
3589;SDS011;1809;48.470;9.226;2022-09-12T05:49:23;5.83;;;5.23;;
3589;SDS011;1809;48.470;9.226;2022-09-12T05:51:49;6.07;;;4.73;;
3589;SDS011;1809;48.470;9.226;2022-09-12T05:54:17;6.30;;;5.40;;
3589;SDS011;1809;48.470;9.226;2022-09-12T05:56:44;4.80;;;4.40;;
3589;SDS011;1809;48.470;9.226;2022-09-12T05:59:11;5.43;;;4.87;;
3589;SDS011;1809;48.470;9.226;2022-09-12T06:01:39;5.53;;;4.07;;
3589;SDS011;1809;48.470;9.226;2022-09-12T06:04:05;3.57;;;3.30;;
3589;SDS011;1809;48.470;9.226;2022-09-12T06:06:33;4.13;;;3.87;;
3589;SDS011;1809;48.470;9.226;2022-09-12T06:09:01;4.00;;;3.80;;
3589;SDS011;1809;48.470;9.226;2022-09-12T06:11:29;4.63;;;3.80;;
3589;SDS011;1809;48.470;9.226;2022-09-12T06:13:57;6.13;;;5.53;;
3589;SDS011;1809;48.470;9.226;2022-09-12T06:16:24;6.33;;;5.90;;
3589;SDS011;1809;48.470;9.226;2022-09-12T06:18:52;7.00;;;6.07;;
3589;SDS011;1809;48.470;9.226;2022-09-12T06:21:20;8.87;;;6.73;;
3589;SDS011;1809;48.470;9.226;2022-09-12T06:23:46;5.70;;;5.10;;
3589;SDS011;1809;48.470;9.226;2022-09-12T06:26:12;5.30;;;4.80;;
3589;SDS011;1809;48.470;9.226;2022-09-12T06:28:41;5.70;;;5.30;;
3589;SDS011;1809;48.470;9.226;2022-09-12T06:31:09;6.20;;;5.70;;
3589;SDS011;1809;48.470;9.226;2022-09-12T06:33:38;5.70;;;5.10;;
3589;SDS011;1809;48.470;9.226;2022-09-12T06:36:10;8.07;;;5.53;;
3589;SDS011;1809;48.470;9.226;2022-09-12T06:38:37;7.23;;;5.10;;
3589;SDS011;1809;48.470;9.226;2022-09-12T06:41:03;10.60;;;5.70;;
3589;SDS011;1809;48.470;9.226;2022-09-12T06:43:31;5.87;;;5.47;;
3589;SDS011;1809;48.470;9.226;2022-09-12T06:45:57;6.80;;;6.20;;
3589;SDS011;1809;48.470;9.226;2022-09-12T06:48:23;8.60;;;6.53;;
3589;SDS011;1809;48.470;9.226;2022-09-12T06:50:58;8.00;;;6.70;;
3589;SDS011;1809;48.470;9.226;2022-09-12T06:53:25;9.70;;;7.60;;
3589;SDS011;1809;48.470;9.226;2022-09-12T06:55:57;13.00;;;7.57;;
3589;SDS011;1809;48.470;9.226;2022-09-12T06:58:25;17.20;;;8.50;;
3589;SDS011;1809;48.470;9.226;2022-09-12T07:00:51;10.00;;;7.50;;
3589;SDS011;1809;48.470;9.226;2022-09-12T07:03:16;39.50;;;23.67;;
3589;SDS011;1809;48.470;9.226;2022-09-12T07:05:42;18.67;;;10.70;;
3589;SDS011;1809;48.470;9.226;2022-09-12T07:08:09;16.30;;;10.87;;
3589;SDS011;1809;48.470;9.226;2022-09-12T07:10:34;12.60;;;9.87;;
3589;SDS011;1809;48.470;9.226;2022-09-12T07:12:59;14.80;;;10.60;;
3589;SDS011;1809;48.470;9.226;2022-09-12T07:15:25;14.73;;;10.70;;
3589;SDS011;1809;48.470;9.226;2022-09-12T07:17:51;12.63;;;10.70;;
3589;SDS011;1809;48.470;9.226;2022-09-12T07:20:16;14.27;;;11.03;;
3589;SDS011;1809;48.470;9.226;2022-09-12T07:22:41;12.30;;;10.27;;
3589;SDS011;1809;48.470;9.226;2022-09-12T07:25:07;14.30;;;10.20;;
3589;SDS011;1809;48.470;9.226;2022-09-12T07:27:33;10.93;;;9.63;;
3589;SDS011;1809;48.470;9.226;2022-09-12T07:29:58;16.60;;;10.10;;
3589;SDS011;1809;48.470;9.226;2022-09-12T07:32:24;15.83;;;9.80;;
3589;SDS011;1809;48.470;9.226;2022-09-12T07:34:50;10.97;;;9.30;;
3589;SDS011;1809;48.470;9.226;2022-09-12T07:37:16;12.63;;;10.03;;
3589;SDS011;1809;48.470;9.226;2022-09-12T07:39:41;12.37;;;9.13;;
3589;SDS011;1809;48.470;9.226;2022-09-12T07:42:10;9.30;;;8.37;;
3589;SDS011;1809;48.470;9.226;2022-09-12T07:44:36;8.37;;;7.47;;
3589;SDS011;1809;48.470;9.226;2022-09-12T07:47:01;9.17;;;8.10;;
3589;SDS011;1809;48.470;9.226;2022-09-12T07:49:27;12.70;;;8.60;;
3589;SDS011;1809;48.470;9.226;2022-09-12T07:51:53;13.77;;;8.83;;
3589;SDS011;1809;48.470;9.226;2022-09-12T07:54:18;12.07;;;9.40;;
3589;SDS011;1809;48.470;9.226;2022-09-12T07:56:43;14.87;;;9.40;;
3589;SDS011;1809;48.470;9.226;2022-09-12T07:59:09;11.63;;;9.53;;
3589;SDS011;1809;48.470;9.226;2022-09-12T08:01:35;12.30;;;10.00;;
3589;SDS011;1809;48.470;9.226;2022-09-12T08:04:00;14.53;;;9.90;;
3589;SDS011;1809;48.470;9.226;2022-09-12T08:06:27;10.30;;;7.50;;
3589;SDS011;1809;48.470;9.226;2022-09-12T08:08:55;9.63;;;8.50;;
3589;SDS011;1809;48.470;9.226;2022-09-12T08:11:22;14.83;;;9.20;;
3589;SDS011;1809;48.470;9.226;2022-09-12T08:13:48;9.60;;;8.40;;
3589;SDS011;1809;48.470;9.226;2022-09-12T08:16:16;9.30;;;8.10;;
3589;SDS011;1809;48.470;9.226;2022-09-12T08:18:44;10.90;;;8.57;;
3589;SDS011;1809;48.470;9.226;2022-09-12T08:21:13;11.10;;;8.70;;
3589;SDS011;1809;48.470;9.226;2022-09-12T08:23:43;10.83;;;8.43;;
3589;SDS011;1809;48.470;9.226;2022-09-12T08:26:10;9.80;;;8.10;;
3589;SDS011;1809;48.470;9.226;2022-09-12T08:28:36;9.47;;;7.63;;
3589;SDS011;1809;48.470;9.226;2022-09-12T08:31:09;9.87;;;8.20;;
3589;SDS011;1809;48.470;9.226;2022-09-12T08:33:36;12.50;;;8.00;;
3589;SDS011;1809;48.470;9.226;2022-09-12T08:36:04;17.07;;;9.00;;
3589;SDS011;1809;48.470;9.226;2022-09-12T08:38:57;11.43;;;7.73;;
3589;SDS011;1809;48.470;9.226;2022-09-12T08:41:31;10.10;;;7.50;;
3589;SDS011;1809;48.470;9.226;2022-09-12T08:49:38;9.20;;;7.80;;
3589;SDS011;1809;48.470;9.226;2022-09-12T08:52:26;10.83;;;8.20;;
3589;SDS011;1809;48.470;9.226;2022-09-12T08:54:55;7.50;;;6.80;;
3589;SDS011;1809;48.470;9.226;2022-09-12T08:57:21;9.90;;;8.67;;
3589;SDS011;1809;48.470;9.226;2022-09-12T08:59:48;8.53;;;7.63;;
3589;SDS011;1809;48.470;9.226;2022-09-12T09:04:49;9.87;;;8.57;;
3589;SDS011;1809;48.470;9.226;2022-09-12T09:07:20;8.37;;;7.47;;
3589;SDS011;1809;48.470;9.226;2022-09-12T09:15:43;8.67;;;6.50;;
3589;SDS011;1809;48.470;9.226;2022-09-12T09:18:31;6.93;;;5.70;;
3589;SDS011;1809;48.470;9.226;2022-09-12T09:21:01;8.50;;;5.90;;
3589;SDS011;1809;48.470;9.226;2022-09-12T09:23:39;10.23;;;7.70;;
3589;SDS011;1809;48.470;9.226;2022-09-12T09:26:14;7.27;;;6.37;;
3589;SDS011;1809;48.470;9.226;2022-09-12T09:28:50;7.90;;;6.47;;
3589;SDS011;1809;48.470;9.226;2022-09-12T09:31:20;10.40;;;7.20;;
3589;SDS011;1809;48.470;9.226;2022-09-12T09:33:48;6.90;;;6.30;;
3589;SDS011;1809;48.470;9.226;2022-09-12T09:39:29;9.03;;;6.50;;
3589;SDS011;1809;48.470;9.226;2022-09-12T09:44:32;5.47;;;5.13;;
3589;SDS011;1809;48.470;9.226;2022-09-12T09:46:58;6.23;;;5.63;;
3589;SDS011;1809;48.470;9.226;2022-09-12T09:49:25;8.53;;;6.13;;
3589;SDS011;1809;48.470;9.226;2022-09-12T09:51:54;8.60;;;6.00;;
3589;SDS011;1809;48.470;9.226;2022-09-12T09:54:30;6.90;;;5.37;;
3589;SDS011;1809;48.470;9.226;2022-09-12T09:57:00;6.17;;;5.07;;
3589;SDS011;1809;48.470;9.226;2022-09-12T09:59:26;5.30;;;4.57;;
3589;SDS011;1809;48.470;9.226;2022-09-12T10:01:54;6.30;;;5.90;;
3589;SDS011;1809;48.470;9.226;2022-09-12T10:04:22;5.63;;;4.80;;
3589;SDS011;1809;48.470;9.226;2022-09-12T10:06:50;4.70;;;4.40;;
3589;SDS011;1809;48.470;9.226;2022-09-12T10:12:32;3.63;;;3.43;;
3589;SDS011;1809;48.470;9.226;2022-09-12T10:15:02;4.10;;;3.70;;
3589;SDS011;1809;48.470;9.226;2022-09-12T10:17:43;4.00;;;2.60;;
3589;SDS011;1809;48.470;9.226;2022-09-12T10:23:19;3.73;;;3.47;;
3589;SDS011;1809;48.470;9.226;2022-09-12T10:25:53;3.20;;;3.00;;
3589;SDS011;1809;48.470;9.226;2022-09-12T10:28:39;6.10;;;3.57;;
3589;SDS011;1809;48.470;9.226;2022-09-12T10:31:08;4.20;;;3.73;;
3589;SDS011;1809;48.470;9.226;2022-09-12T10:33:47;5.10;;;3.57;;
3589;SDS011;1809;48.470;9.226;2022-09-12T10:36:17;3.60;;;3.40;;
3589;SDS011;1809;48.470;9.226;2022-09-12T10:38:51;3.73;;;3.40;;
3589;SDS011;1809;48.470;9.226;2022-09-12T10:41:19;4.03;;;3.33;;
3589;SDS011;1809;48.470;9.226;2022-09-12T10:43:46;2.87;;;2.77;;
3589;SDS011;1809;48.470;9.226;2022-09-12T10:48:43;2.50;;;2.30;;
3589;SDS011;1809;48.470;9.226;2022-09-12T10:53:47;1.90;;;1.80;;
3589;SDS011;1809;48.470;9.226;2022-09-12T10:56:20;2.00;;;1.90;;
3589;SDS011;1809;48.470;9.226;2022-09-12T11:09:50;4.73;;;1.50;;
3589;SDS011;1809;48.470;9.226;2022-09-12T11:17:41;1.70;;;1.60;;
3589;SDS011;1809;48.470;9.226;2022-09-12T11:20:34;3.70;;;1.23;;
3589;SDS011;1809;48.470;9.226;2022-09-12T11:28:56;1.23;;;1.23;;
3589;SDS011;1809;48.470;9.226;2022-09-12T11:34:08;3.63;;;1.40;;
3589;SDS011;1809;48.470;9.226;2022-09-12T11:36:41;1.40;;;1.30;;
3589;SDS011;1809;48.470;9.226;2022-09-12T11:41:44;1.70;;;1.60;;
3589;SDS011;1809;48.470;9.226;2022-09-12T11:44:22;1.90;;;1.80;;
3589;SDS011;1809;48.470;9.226;2022-09-12T11:46:52;2.40;;;2.20;;
3589;SDS011;1809;48.470;9.226;2022-09-12T11:52:19;10.83;;;1.80;;
3589;SDS011;1809;48.470;9.226;2022-09-12T11:57:44;1.70;;;1.60;;
3589;SDS011;1809;48.470;9.226;2022-09-12T12:00:18;1.27;;;1.17;;
3589;SDS011;1809;48.470;9.226;2022-09-12T12:08:05;1.00;;;1.00;;
3589;SDS011;1809;48.470;9.226;2022-09-12T12:16:16;1.67;;;1.40;;
3589;SDS011;1809;48.470;9.226;2022-09-12T12:18:56;1.60;;;1.50;;
3589;SDS011;1809;48.470;9.226;2022-09-12T12:21:31;1.40;;;1.40;;
3589;SDS011;1809;48.470;9.226;2022-09-12T12:29:03;1.40;;;1.40;;
3589;SDS011;1809;48.470;9.226;2022-09-12T12:31:32;5.33;;;1.10;;
3589;SDS011;1809;48.470;9.226;2022-09-12T12:36:56;1.23;;;1.13;;
3589;SDS011;1809;48.470;9.226;2022-09-12T12:41:56;1.73;;;1.63;;
3589;SDS011;1809;48.470;9.226;2022-09-12T12:49:53;1.57;;;1.57;;
3589;SDS011;1809;48.470;9.226;2022-09-12T12:52:39;1.70;;;1.63;;
3589;SDS011;1809;48.470;9.226;2022-09-12T12:58:23;3.57;;;1.50;;
3589;SDS011;1809;48.470;9.226;2022-09-12T13:01:10;2.30;;;1.33;;
3589;SDS011;1809;48.470;9.226;2022-09-12T13:03:42;1.40;;;1.40;;
3589;SDS011;1809;48.470;9.226;2022-09-12T13:06:22;1.20;;;1.20;;
3589;SDS011;1809;48.470;9.226;2022-09-12T13:09:01;1.67;;;1.57;;
3589;SDS011;1809;48.470;9.226;2022-09-12T13:11:34;1.27;;;1.27;;
3589;SDS011;1809;48.470;9.226;2022-09-12T13:14:04;2.10;;;1.27;;
3589;SDS011;1809;48.470;9.226;2022-09-12T13:19:21;1.93;;;1.40;;
3589;SDS011;1809;48.470;9.226;2022-09-12T13:24:21;1.37;;;1.37;;
3589;SDS011;1809;48.470;9.226;2022-09-12T13:26:47;1.60;;;1.50;;
3589;SDS011;1809;48.470;9.226;2022-09-12T13:29:23;1.30;;;1.20;;
3589;SDS011;1809;48.470;9.226;2022-09-12T13:31:52;1.10;;;1.00;;
3589;SDS011;1809;48.470;9.226;2022-09-12T13:45:42;1.20;;;1.20;;
3589;SDS011;1809;48.470;9.226;2022-09-12T13:48:12;1.37;;;1.23;;
3589;SDS011;1809;48.470;9.226;2022-09-12T13:50:49;4.03;;;1.57;;
3589;SDS011;1809;48.470;9.226;2022-09-12T13:53:18;2.00;;;1.27;;
3589;SDS011;1809;48.470;9.226;2022-09-12T13:55:49;1.27;;;1.27;;
3589;SDS011;1809;48.470;9.226;2022-09-12T13:58:24;1.33;;;1.23;;
3589;SDS011;1809;48.470;9.226;2022-09-12T14:03:38;1.23;;;1.23;;
3589;SDS011;1809;48.470;9.226;2022-09-12T14:06:24;1.13;;;1.13;;
3589;SDS011;1809;48.470;9.226;2022-09-12T14:08:51;1.10;;;1.10;;
3589;SDS011;1809;48.470;9.226;2022-09-12T14:11:24;2.17;;;1.53;;
3589;SDS011;1809;48.470;9.226;2022-09-12T14:13:52;1.30;;;1.20;;
3589;SDS011;1809;48.470;9.226;2022-09-12T14:16:19;1.83;;;1.40;;
3589;SDS011;1809;48.470;9.226;2022-09-12T14:18:45;1.30;;;1.20;;
3589;SDS011;1809;48.470;9.226;2022-09-12T14:21:19;1.63;;;1.23;;
3589;SDS011;1809;48.470;9.226;2022-09-12T14:23:58;1.30;;;1.20;;
3589;SDS011;1809;48.470;9.226;2022-09-12T14:26:25;1.07;;;1.00;;
3589;SDS011;1809;48.470;9.226;2022-09-12T14:28:57;1.60;;;1.30;;
3589;SDS011;1809;48.470;9.226;2022-09-12T14:31:24;1.13;;;1.10;;
3589;SDS011;1809;48.470;9.226;2022-09-12T14:33:55;1.17;;;1.17;;
3589;SDS011;1809;48.470;9.226;2022-09-12T14:36:45;2.17;;;1.00;;
3589;SDS011;1809;48.470;9.226;2022-09-12T14:39:20;3.10;;;1.30;;
3589;SDS011;1809;48.470;9.226;2022-09-12T14:41:50;2.50;;;1.27;;
3589;SDS011;1809;48.470;9.226;2022-09-12T14:44:26;1.40;;;1.30;;
3589;SDS011;1809;48.470;9.226;2022-09-12T14:46:53;7.23;;;1.73;;
3589;SDS011;1809;48.470;9.226;2022-09-12T14:49:22;3.23;;;1.20;;
3589;SDS011;1809;48.470;9.226;2022-09-12T14:56:57;1.40;;;1.40;;
3589;SDS011;1809;48.470;9.226;2022-09-12T14:59:26;1.83;;;1.70;;
3589;SDS011;1809;48.470;9.226;2022-09-12T15:04:38;2.27;;;1.30;;
3589;SDS011;1809;48.470;9.226;2022-09-12T15:09:39;2.97;;;2.87;;
3589;SDS011;1809;48.470;9.226;2022-09-12T15:12:05;3.10;;;1.17;;
3589;SDS011;1809;48.470;9.226;2022-09-12T15:14:32;1.30;;;1.20;;
3589;SDS011;1809;48.470;9.226;2022-09-12T15:16:58;0.97;;;0.97;;
3589;SDS011;1809;48.470;9.226;2022-09-12T15:19:23;2.80;;;1.23;;
3589;SDS011;1809;48.470;9.226;2022-09-12T15:21:48;1.13;;;1.13;;
3589;SDS011;1809;48.470;9.226;2022-09-12T15:24:14;1.20;;;1.20;;
3589;SDS011;1809;48.470;9.226;2022-09-12T15:26:39;1.37;;;1.37;;
3589;SDS011;1809;48.470;9.226;2022-09-12T15:29:04;1.10;;;1.10;;
3589;SDS011;1809;48.470;9.226;2022-09-12T15:31:30;1.33;;;1.23;;
3589;SDS011;1809;48.470;9.226;2022-09-12T15:33:57;1.30;;;1.20;;
3589;SDS011;1809;48.470;9.226;2022-09-12T15:36:25;1.30;;;1.20;;
3589;SDS011;1809;48.470;9.226;2022-09-12T15:38:50;4.00;;;1.27;;
3589;SDS011;1809;48.470;9.226;2022-09-12T15:41:21;3.10;;;1.20;;
3589;SDS011;1809;48.470;9.226;2022-09-12T15:43:55;1.10;;;1.10;;
3589;SDS011;1809;48.470;9.226;2022-09-12T15:46:21;2.80;;;1.00;;
3589;SDS011;1809;48.470;9.226;2022-09-12T15:48:46;1.13;;;1.03;;
3589;SDS011;1809;48.470;9.226;2022-09-12T15:51:15;1.30;;;1.10;;
3589;SDS011;1809;48.470;9.226;2022-09-12T15:53:42;2.20;;;1.30;;
3589;SDS011;1809;48.470;9.226;2022-09-12T15:56:08;1.30;;;1.20;;
3589;SDS011;1809;48.470;9.226;2022-09-12T15:58:34;2.10;;;1.67;;
3589;SDS011;1809;48.470;9.226;2022-09-12T16:01:00;3.47;;;1.30;;
3589;SDS011;1809;48.470;9.226;2022-09-12T16:03:27;2.50;;;1.10;;
3589;SDS011;1809;48.470;9.226;2022-09-12T16:06:00;3.63;;;1.00;;
3589;SDS011;1809;48.470;9.226;2022-09-12T16:08:27;1.10;;;1.10;;
3589;SDS011;1809;48.470;9.226;2022-09-12T16:10:55;1.30;;;1.20;;
3589;SDS011;1809;48.470;9.226;2022-09-12T16:13:24;1.00;;;1.00;;
3589;SDS011;1809;48.470;9.226;2022-09-12T16:15:50;1.00;;;0.90;;
3589;SDS011;1809;48.470;9.226;2022-09-12T16:18:16;3.77;;;1.10;;
3589;SDS011;1809;48.470;9.226;2022-09-12T16:20:42;1.43;;;1.20;;
3589;SDS011;1809;48.470;9.226;2022-09-12T16:23:11;2.83;;;1.50;;
3589;SDS011;1809;48.470;9.226;2022-09-12T16:25:37;1.27;;;1.07;;
3589;SDS011;1809;48.470;9.226;2022-09-12T16:28:06;1.27;;;1.27;;
3589;SDS011;1809;48.470;9.226;2022-09-12T16:30:31;2.13;;;0.97;;
3589;SDS011;1809;48.470;9.226;2022-09-12T16:32:57;2.30;;;1.30;;
3589;SDS011;1809;48.470;9.226;2022-09-12T16:35:23;1.17;;;1.07;;
3589;SDS011;1809;48.470;9.226;2022-09-12T16:37:48;1.30;;;1.20;;
3589;SDS011;1809;48.470;9.226;2022-09-12T16:40:14;1.17;;;1.17;;
3589;SDS011;1809;48.470;9.226;2022-09-12T16:42:41;2.60;;;1.67;;
3589;SDS011;1809;48.470;9.226;2022-09-12T16:45:07;2.20;;;1.37;;
3589;SDS011;1809;48.470;9.226;2022-09-12T16:47:33;0.90;;;0.90;;
3589;SDS011;1809;48.470;9.226;2022-09-12T16:49:58;2.30;;;1.30;;
3589;SDS011;1809;48.470;9.226;2022-09-12T16:52:24;0.93;;;0.93;;
3589;SDS011;1809;48.470;9.226;2022-09-12T16:54:49;1.30;;;1.10;;
3589;SDS011;1809;48.470;9.226;2022-09-12T16:57:15;1.20;;;1.20;;
3589;SDS011;1809;48.470;9.226;2022-09-12T16:59:40;1.53;;;1.43;;
3589;SDS011;1809;48.470;9.226;2022-09-12T17:02:06;1.30;;;1.20;;
3589;SDS011;1809;48.470;9.226;2022-09-12T17:04:34;1.27;;;1.23;;
3589;SDS011;1809;48.470;9.226;2022-09-12T17:06:59;1.67;;;1.57;;
3589;SDS011;1809;48.470;9.226;2022-09-12T17:09:25;3.13;;;1.80;;
3589;SDS011;1809;48.470;9.226;2022-09-12T17:11:52;1.77;;;1.67;;
3589;SDS011;1809;48.470;9.226;2022-09-12T17:14:17;1.00;;;1.00;;
3589;SDS011;1809;48.470;9.226;2022-09-12T17:16:43;1.83;;;1.50;;
3589;SDS011;1809;48.470;9.226;2022-09-12T17:19:12;1.53;;;1.43;;
3589;SDS011;1809;48.470;9.226;2022-09-12T17:21:43;1.33;;;1.23;;
3589;SDS011;1809;48.470;9.226;2022-09-12T17:24:11;1.77;;;1.27;;
3589;SDS011;1809;48.470;9.226;2022-09-12T17:26:36;1.83;;;1.73;;
3589;SDS011;1809;48.470;9.226;2022-09-12T17:29:02;1.70;;;1.60;;
3589;SDS011;1809;48.470;9.226;2022-09-12T17:31:28;1.80;;;1.70;;
3589;SDS011;1809;48.470;9.226;2022-09-12T17:33:54;1.50;;;1.40;;
3589;SDS011;1809;48.470;9.226;2022-09-12T17:36:23;1.63;;;1.53;;
3589;SDS011;1809;48.470;9.226;2022-09-12T17:38:50;1.73;;;1.60;;
3589;SDS011;1809;48.470;9.226;2022-09-12T17:43:45;1.83;;;1.73;;
3589;SDS011;1809;48.470;9.226;2022-09-12T17:46:14;1.60;;;1.50;;
3589;SDS011;1809;48.470;9.226;2022-09-12T17:48:39;2.00;;;1.20;;
3589;SDS011;1809;48.470;9.226;2022-09-12T17:51:06;2.00;;;1.90;;
3589;SDS011;1809;48.470;9.226;2022-09-12T17:53:32;1.90;;;1.80;;
3589;SDS011;1809;48.470;9.226;2022-09-12T17:56:02;4.10;;;1.90;;
3589;SDS011;1809;48.470;9.226;2022-09-12T17:58:28;1.97;;;1.87;;
3589;SDS011;1809;48.470;9.226;2022-09-12T18:01:09;1.90;;;1.80;;
3589;SDS011;1809;48.470;9.226;2022-09-12T18:03:56;1.37;;;1.37;;
3589;SDS011;1809;48.470;9.226;2022-09-12T18:06:24;2.00;;;1.90;;
3589;SDS011;1809;48.470;9.226;2022-09-12T18:08:51;1.93;;;1.83;;
3589;SDS011;1809;48.470;9.226;2022-09-12T18:11:16;1.30;;;1.30;;
3589;SDS011;1809;48.470;9.226;2022-09-12T18:13:42;2.13;;;2.03;;